Northsea Beta — 9HA2594 — position and weather

sailwx.info

Track history (hours):
 
Tides and Currents Weather Stations Pressure Air Temp Water Temp Dewpoint Dewpoint Depression Visibility Wind Speed Wind Dir Waves Ship Positions

Northsea Beta

Last reported at 2014-Oct-30 12:12 UTC. Time now 2014-Oct-30 15:14 UTC.
Position N 51°53' E 003°14'.

Length 110 m; draft 5.4 m.

Type: Tanker. MMSI: 248970000.

Date/timePositionNaut miles runAvg speedWind from/ knotsBaromVisibWave heightAir tempDewpointWater temp
2014-Oct-30 12:12N 51°53' E 003°14'710.8
2014-Oct-30 11:32N 51°51' E 003°03'2511.0
2014-Oct-30 09:15N 51°39' E 002°27'912.1
2014-Oct-30 08:32N 51°33' E 002°18'1212.3
2014-Oct-30 07:33N 51°22' E 002°10'1212.1
2014-Oct-30 06:33N 51°12' E 001°59'1313.2
2014-Oct-30 05:34N 51°05' E 001°42'2713.5
2014-Oct-30 03:33N 50°42' E 001°20'9010.6
2014-Oct-29 19:04N 49°34' W 000°12'510.6
2014-Oct-29 18:33N 49°30' W 000°07'1313.2
2014-Oct-29 17:33N 49°26' E 000°13'10 0.2
2014-Oct-27 15:27N 49°28' E 000°28'7 8.0
2014-Oct-27 14:33N 49°26' E 000°18'10 9.9
2014-Oct-27 13:33N 49°27' E 000°03'1010.4
2014-Oct-27 12:33N 49°31' W 000°12'84 9.2
2014-Oct-27 03:30N 50°44' E 000°53'28 9.5
2014-Oct-27 00:33N 51°01' E 001°28'1010.1
2014-Oct-26 23:33N 51°09' E 001°39'1212.0
2014-Oct-26 22:33N 51°18' E 001°50'1313.0
2014-Oct-26 21:34N 51°29' E 002°03'1312.5
2014-Oct-26 20:33N 51°38' E 002°16'57 9.2
2014-Oct-26 14:18N 52°04' E 003°39'7 9.6
2014-Oct-26 13:33N 52°03' E 003°51'1010.2
2014-Oct-26 12:34N 51°59' E 004°06'9 8.8
2014-Oct-26 11:34N 51°53' E 004°16'0 0.1
2014-Oct-26 10:30N 51°53' E 004°16'0 0.0
2014-Oct-26 09:30N 51°53' E 004°16'0 0.0
2014-Oct-26 08:24N 51°53' E 004°16'0 0.0
2014-Oct-26 04:12N 51°53' E 004°16'0 0.0
2014-Oct-26 02:24N 51°53' E 004°16'0 0.0
2014-Oct-25 17:30N 51°53' E 004°16'0 0.0
2014-Oct-25 14:30N 51°53' E 004°16'0 0.0
2014-Oct-25 12:06N 51°53' E 004°16'0 0.0
2014-Oct-25 11:12N 51°53' E 004°16'0 0.0
2014-Oct-25 09:18N 51°53' E 004°16'0 0.0
2014-Oct-25 07:06N 51°53' E 004°16'0 0.0
2014-Oct-25 06:06N 51°53' E 004°16'0 0.0
2014-Oct-25 05:18N 51°53' E 004°16'0 0.0
2014-Oct-25 04:24N 51°53' E 004°16'0 0.0
2014-Oct-25 01:18N 51°53' E 004°16'0 0.0
2014-Oct-25 00:24N 51°53' E 004°16'0 0.0
2014-Oct-24 23:34N 51°53' E 004°16'0 0.4
2014-Oct-24 22:34N 51°53' E 004°17'5 5.4
2014-Oct-24 21:33N 51°57' E 004°10'9 9.1
2014-Oct-24 20:33N 52°00' E 003°57'8 8.2
2014-Oct-24 19:32N 52°05' E 003°46'1211.2
2014-Oct-24 18:30N 52°17' E 003°47'34 8.7
2014-Oct-24 14:33N 52°43' E 004°23'14 9.5
2014-Oct-24 13:07N 52°54' E 004°38'610.0
2014-Oct-24 12:33N 52°58' E 004°43'5 2.6
2014-Oct-24 10:31N 53°01' E 004°50'0 0.1
2014-Oct-24 09:31N 53°01' E 004°50'0 0.1
2014-Oct-24 08:31N 53°01' E 004°50'0 0.0
2014-Oct-24 07:31N 53°01' E 004°50'0 0.0
2014-Oct-24 06:22N 53°01' E 004°50'0 0.0
2014-Oct-24 05:25N 53°01' E 004°50'0 0.0
2014-Oct-24 04:25N 53°01' E 004°50'0 0.0
2014-Oct-24 03:25N 53°01' E 004°50'0 0.0
2014-Oct-24 02:25N 53°01' E 004°50'0 0.1
2014-Oct-24 01:25N 53°01' E 004°50'0 0.0
2014-Oct-24 00:28N 53°01' E 004°50'0 0.0
2014-Oct-23 23:28N 53°01' E 004°50'0 0.0
2014-Oct-23 22:16N 53°01' E 004°50'0 0.1
2014-Oct-23 21:31N 53°01' E 004°50'0 0.1
2014-Oct-23 20:28N 53°01' E 004°50'0 0.0
2014-Oct-23 19:31N 53°01' E 004°50'0 0.0
2014-Oct-23 18:31N 53°01' E 004°50'0 0.0
2014-Oct-23 17:31N 53°01' E 004°50'0 0.0
2014-Oct-23 16:31N 53°01' E 004°50'0 0.0
2014-Oct-23 15:22N 53°01' E 004°50'0 0.0
2014-Oct-23 14:22N 53°01' E 004°50'0 0.1
2014-Oct-23 11:13N 53°01' E 004°50'0 0.1
2014-Oct-23 08:28N 53°01' E 004°50'0 0.0
2014-Oct-23 07:31N 53°01' E 004°50'0 0.0
2014-Oct-23 06:28N 53°01' E 004°50'0 0.0
2014-Oct-23 05:31N 53°01' E 004°50'0 0.0
2014-Oct-23 04:31N 53°01' E 004°50'0 0.0
2014-Oct-23 03:31N 53°01' E 004°50'0 0.0
2014-Oct-23 02:31N 53°01' E 004°50'0 0.1
2014-Oct-23 01:19N 53°01' E 004°50'0 0.0
2014-Oct-23 00:22N 53°01' E 004°50'0 0.0
2014-Oct-22 23:22N 53°01' E 004°50'0 0.0
2014-Oct-22 21:28N 53°01' E 004°50'0 0.0
2014-Oct-22 20:28N 53°01' E 004°50'0 0.0
2014-Oct-22 19:28N 53°01' E 004°50'0 0.1
2014-Oct-22 18:31N 53°01' E 004°50'0 0.1
2014-Oct-22 17:28N 53°01' E 004°50'0 0.0
2014-Oct-22 16:31N 53°01' E 004°50'0 0.0
2014-Oct-22 15:31N 53°01' E 004°50'0 0.1
2014-Oct-22 14:28N 53°01' E 004°50'0 0.1
2014-Oct-22 13:04N 53°01' E 004°50'0 0.0
2014-Oct-22 12:31N 53°01' E 004°50'0 0.0
2014-Oct-22 11:31N 53°01' E 004°50'0 0.0
2014-Oct-22 10:22N 53°01' E 004°50'0 0.0
2014-Oct-22 09:22N 53°01' E 004°50'0 0.0
2014-Oct-22 08:25N 53°01' E 004°50'0 0.0
2014-Oct-22 07:25N 53°01' E 004°50'0 0.1
2014-Oct-22 06:25N 53°01' E 004°50'0 0.1
2014-Oct-22 05:25N 53°01' E 004°50'0 0.0
2014-Oct-22 04:28N 53°01' E 004°50'0 0.0
2014-Oct-22 03:31N 53°01' E 004°50'0 0.0
2014-Oct-22 02:31N 53°01' E 004°50'0 0.1
2014-Oct-22 01:31N 53°01' E 004°50'0 0.0
2014-Oct-22 00:28N 53°01' E 004°50'0 0.0
2014-Oct-21 23:31N 53°01' E 004°50'0 0.0
2014-Oct-21 22:31N 53°01' E 004°50'0 0.0
2014-Oct-21 21:31N 53°01' E 004°50'0 0.0
2014-Oct-21 20:22N 53°01' E 004°50'0 0.0
2014-Oct-21 19:25N 53°01' E 004°50'0 0.0
2014-Oct-21 18:25N 53°01' E 004°50'0 0.1
2014-Oct-21 17:25N 53°01' E 004°50'0 0.0
2014-Oct-21 16:28N 53°01' E 004°50'0 0.0
2014-Oct-21 15:28N 53°01' E 004°50'0 0.0
2014-Oct-21 14:28N 53°01' E 004°50'0 0.0
2014-Oct-21 13:31N 53°01' E 004°50'0 0.0
2014-Oct-21 12:31N 53°01' E 004°50'0 0.0
2014-Oct-21 11:31N 53°01' E 004°50'0 0.1
2014-Oct-21 10:13N 53°01' E 004°50'0 0.0
2014-Oct-21 09:31N 53°01' E 004°50'0 0.1
2014-Oct-21 08:16N 53°01' E 004°50'0 0.1
2014-Oct-21 07:31N 53°01' E 004°50'0 0.1
2014-Oct-21 06:22N 53°01' E 004°50'0 0.0
2014-Oct-21 05:31N 53°01' E 004°50'0 0.0
2014-Oct-21 04:25N 53°01' E 004°50'0 0.0
2014-Oct-21 03:25N 53°01' E 004°50'0 0.0
2014-Oct-21 02:25N 53°01' E 004°50'0 0.0
2014-Oct-21 01:28N 53°01' E 004°50'0 0.0
2014-Oct-21 00:28N 53°01' E 004°50'0 0.2
2014-Oct-20 23:31N 53°01' E 004°50'0 0.0
2014-Oct-20 22:31N 53°01' E 004°50'0 0.0
2014-Oct-20 21:28N 53°01' E 004°50'0 0.0
2014-Oct-20 20:31N 53°01' E 004°50'0 0.0
2014-Oct-20 19:28N 53°01' E 004°50'0 0.1
2014-Oct-20 18:31N 53°01' E 004°50'0 0.1
2014-Oct-20 17:31N 53°01' E 004°50'0 0.0
2014-Oct-20 16:31N 53°01' E 004°50'0 0.0
2014-Oct-20 15:22N 53°01' E 004°50'0 0.0
2014-Oct-20 14:25N 53°01' E 004°50'0 0.0
2014-Oct-20 13:25N 53°01' E 004°50'0 0.0
2014-Oct-20 12:25N 53°01' E 004°50'  
Track history (hours):
 
Tides and Currents Weather Stations Pressure Air Temp Water Temp Dewpoint Dewpoint Depression Visibility Wind Speed Wind Dir Waves Ship Positions

Northsea Beta

Last reported at 2014-Oct-30 12:12 UTC. Time now 2014-Oct-30 15:14 UTC.
Position N 51°53' E 003°14'.

Length 110 m; draft 5.4 m.

Type: Tanker. MMSI: 248970000.

Date/timePositionNaut miles runAvg speedWind from/ knotsBaromVisibWave heightAir tempDewpointWater temp
2014-Oct-30 12:12N 51°53' E 003°14'710.8
2014-Oct-30 11:32N 51°51' E 003°03'2511.0
2014-Oct-30 09:15N 51°39' E 002°27'912.1
2014-Oct-30 08:32N 51°33' E 002°18'1212.3
2014-Oct-30 07:33N 51°22' E 002°10'1212.1
2014-Oct-30 06:33N 51°12' E 001°59'1313.2
2014-Oct-30 05:34N 51°05' E 001°42'2713.5
2014-Oct-30 03:33N 50°42' E 001°20'9010.6
2014-Oct-29 19:04N 49°34' W 000°12'510.6
2014-Oct-29 18:33N 49°30' W 000°07'1313.2
2014-Oct-29 17:33N 49°26' E 000°13'10 0.2
2014-Oct-27 15:27N 49°28' E 000°28'7 8.0
2014-Oct-27 14:33N 49°26' E 000°18'10 9.9
2014-Oct-27 13:33N 49°27' E 000°03'1010.4
2014-Oct-27 12:33N 49°31' W 000°12'84 9.2
2014-Oct-27 03:30N 50°44' E 000°53'28 9.5
2014-Oct-27 00:33N 51°01' E 001°28'1010.1
2014-Oct-26 23:33N 51°09' E 001°39'1212.0
2014-Oct-26 22:33N 51°18' E 001°50'1313.0
2014-Oct-26 21:34N 51°29' E 002°03'1312.5
2014-Oct-26 20:33N 51°38' E 002°16'57 9.2
2014-Oct-26 14:18N 52°04' E 003°39'7 9.6
2014-Oct-26 13:33N 52°03' E 003°51'1010.2
2014-Oct-26 12:34N 51°59' E 004°06'9 8.8
2014-Oct-26 11:34N 51°53' E 004°16'0 0.1
2014-Oct-26 10:30N 51°53' E 004°16'0 0.0
2014-Oct-26 09:30N 51°53' E 004°16'0 0.0
2014-Oct-26 08:24N 51°53' E 004°16'0 0.0
2014-Oct-26 04:12N 51°53' E 004°16'0 0.0
2014-Oct-26 02:24N 51°53' E 004°16'0 0.0
2014-Oct-25 17:30N 51°53' E 004°16'0 0.0
2014-Oct-25 14:30N 51°53' E 004°16'0 0.0
2014-Oct-25 12:06N 51°53' E 004°16'0 0.0
2014-Oct-25 11:12N 51°53' E 004°16'0 0.0
2014-Oct-25 09:18N 51°53' E 004°16'0 0.0
2014-Oct-25 07:06N 51°53' E 004°16'0 0.0
2014-Oct-25 06:06N 51°53' E 004°16'0 0.0
2014-Oct-25 05:18N 51°53' E 004°16'0 0.0
2014-Oct-25 04:24N 51°53' E 004°16'0 0.0
2014-Oct-25 01:18N 51°53' E 004°16'0 0.0
2014-Oct-25 00:24N 51°53' E 004°16'0 0.0
2014-Oct-24 23:34N 51°53' E 004°16'0 0.4
2014-Oct-24 22:34N 51°53' E 004°17'5 5.4
2014-Oct-24 21:33N 51°57' E 004°10'9 9.1
2014-Oct-24 20:33N 52°00' E 003°57'8 8.2
2014-Oct-24 19:32N 52°05' E 003°46'1211.2
2014-Oct-24 18:30N 52°17' E 003°47'34 8.7
2014-Oct-24 14:33N 52°43' E 004°23'14 9.5
2014-Oct-24 13:07N 52°54' E 004°38'610.0
2014-Oct-24 12:33N 52°58' E 004°43'5 2.6
2014-Oct-24 10:31N 53°01' E 004°50'0 0.1
2014-Oct-24 09:31N 53°01' E 004°50'0 0.1
2014-Oct-24 08:31N 53°01' E 004°50'0 0.0
2014-Oct-24 07:31N 53°01' E 004°50'0 0.0
2014-Oct-24 06:22N 53°01' E 004°50'0 0.0
2014-Oct-24 05:25N 53°01' E 004°50'0 0.0
2014-Oct-24 04:25N 53°01' E 004°50'0 0.0
2014-Oct-24 03:25N 53°01' E 004°50'0 0.0
2014-Oct-24 02:25N 53°01' E 004°50'0 0.1
2014-Oct-24 01:25N 53°01' E 004°50'0 0.0
2014-Oct-24 00:28N 53°01' E 004°50'0 0.0
2014-Oct-23 23:28N 53°01' E 004°50'0 0.0
2014-Oct-23 22:16N 53°01' E 004°50'0 0.1
2014-Oct-23 21:31N 53°01' E 004°50'0 0.1
2014-Oct-23 20:28N 53°01' E 004°50'0 0.0
2014-Oct-23 19:31N 53°01' E 004°50'0 0.0
2014-Oct-23 18:31N 53°01' E 004°50'0 0.0
2014-Oct-23 17:31N 53°01' E 004°50'0 0.0
2014-Oct-23 16:31N 53°01' E 004°50'0 0.0
2014-Oct-23 15:22N 53°01' E 004°50'0 0.0
2014-Oct-23 14:22N 53°01' E 004°50'0 0.1
2014-Oct-23 11:13N 53°01' E 004°50'0 0.1
2014-Oct-23 08:28N 53°01' E 004°50'0 0.0
2014-Oct-23 07:31N 53°01' E 004°50'0 0.0
2014-Oct-23 06:28N 53°01' E 004°50'0 0.0
2014-Oct-23 05:31N 53°01' E 004°50'0 0.0
2014-Oct-23 04:31N 53°01' E 004°50'0 0.0
2014-Oct-23 03:31N 53°01' E 004°50'0 0.0
2014-Oct-23 02:31N 53°01' E 004°50'0 0.1
2014-Oct-23 01:19N 53°01' E 004°50'0 0.0
2014-Oct-23 00:22N 53°01' E 004°50'0 0.0
2014-Oct-22 23:22N 53°01' E 004°50'0 0.0
2014-Oct-22 21:28N 53°01' E 004°50'0 0.0
2014-Oct-22 20:28N 53°01' E 004°50'0 0.0
2014-Oct-22 19:28N 53°01' E 004°50'0 0.1
2014-Oct-22 18:31N 53°01' E 004°50'0 0.1
2014-Oct-22 17:28N 53°01' E 004°50'0 0.0
2014-Oct-22 16:31N 53°01' E 004°50'0 0.0
2014-Oct-22 15:31N 53°01' E 004°50'0 0.1
2014-Oct-22 14:28N 53°01' E 004°50'0 0.1
2014-Oct-22 13:04N 53°01' E 004°50'0 0.0
2014-Oct-22 12:31N 53°01' E 004°50'0 0.0
2014-Oct-22 11:31N 53°01' E 004°50'0 0.0
2014-Oct-22 10:22N 53°01' E 004°50'0 0.0
2014-Oct-22 09:22N 53°01' E 004°50'0 0.0
2014-Oct-22 08:25N 53°01' E 004°50'0 0.0
2014-Oct-22 07:25N 53°01' E 004°50'0 0.1
2014-Oct-22 06:25N 53°01' E 004°50'0 0.1
2014-Oct-22 05:25N 53°01' E 004°50'0 0.0
2014-Oct-22 04:28N 53°01' E 004°50'0 0.0
2014-Oct-22 03:31N 53°01' E 004°50'0 0.0
2014-Oct-22 02:31N 53°01' E 004°50'0 0.1
2014-Oct-22 01:31N 53°01' E 004°50'0 0.0
2014-Oct-22 00:28N 53°01' E 004°50'0 0.0
2014-Oct-21 23:31N 53°01' E 004°50'0 0.0
2014-Oct-21 22:31N 53°01' E 004°50'0 0.0
2014-Oct-21 21:31N 53°01' E 004°50'0 0.0
2014-Oct-21 20:22N 53°01' E 004°50'0 0.0
2014-Oct-21 19:25N 53°01' E 004°50'0 0.0
2014-Oct-21 18:25N 53°01' E 004°50'0 0.1
2014-Oct-21 17:25N 53°01' E 004°50'0 0.0
2014-Oct-21 16:28N 53°01' E 004°50'0 0.0
2014-Oct-21 15:28N 53°01' E 004°50'0 0.0
2014-Oct-21 14:28N 53°01' E 004°50'0 0.0
2014-Oct-21 13:31N 53°01' E 004°50'0 0.0
2014-Oct-21 12:31N 53°01' E 004°50'0 0.0
2014-Oct-21 11:31N 53°01' E 004°50'0 0.1
2014-Oct-21 10:13N 53°01' E 004°50'0 0.0
2014-Oct-21 09:31N 53°01' E 004°50'0 0.1
2014-Oct-21 08:16N 53°01' E 004°50'0 0.1
2014-Oct-21 07:31N 53°01' E 004°50'0 0.1
2014-Oct-21 06:22N 53°01' E 004°50'0 0.0
2014-Oct-21 05:31N 53°01' E 004°50'0 0.0
2014-Oct-21 04:25N 53°01' E 004°50'0 0.0
2014-Oct-21 03:25N 53°01' E 004°50'0 0.0
2014-Oct-21 02:25N 53°01' E 004°50'0 0.0
2014-Oct-21 01:28N 53°01' E 004°50'0 0.0
2014-Oct-21 00:28N 53°01' E 004°50'0 0.2
2014-Oct-20 23:31N 53°01' E 004°50'0 0.0
2014-Oct-20 22:31N 53°01' E 004°50'0 0.0
2014-Oct-20 21:28N 53°01' E 004°50'0 0.0
2014-Oct-20 20:31N 53°01' E 004°50'0 0.0
2014-Oct-20 19:28N 53°01' E 004°50'0 0.1
2014-Oct-20 18:31N 53°01' E 004°50'0 0.1
2014-Oct-20 17:31N 53°01' E 004°50'0 0.0
2014-Oct-20 16:31N 53°01' E 004°50'0 0.0
2014-Oct-20 15:22N 53°01' E 004°50'0 0.0
2014-Oct-20 14:25N 53°01' E 004°50'0 0.0
2014-Oct-20 13:25N 53°01' E 004°50'0 0.0
2014-Oct-20 12:25N 53°01' E 004°50'  

Dump ship's entire track history